Saint Helen, Michigan
Current Conditions -  °F | °C
As of 4:53 AM on Sunday 25 Jan 2015 (Local Time) from KHTL Reporting Station
Clear Clear  
Wind Chill:   Ceiling: Unl
Heat Index: 12°   Visibility: 10mi
Dew Point:   Wind: 9mph
Humidity: 77%   Direction: 20°NNE
Pressure: 29.81"   Gusts: NA
Location:  44.36°N, 84.42°W
Report Text: KHTL 250953Z AUTO 02008KT 10SM CLR M11/M14 A2981 RMK AO2 SLP112 T11111144
Loading
Personal Weather Stations






























Interactive Weather Map New forecast layout! Learn more

10-Day Weather Forecast

Advertisements
Track Severe Weather on mobile